Time,TemperatureF,DewpointF,PressureIn,WindDirection,WindDirectionDegrees,WindSpeedMPH,WindSpeedGustMPH,Humidity,HourlyPrecipIn,Conditions,Clouds,dailyrainin,SoftwareType,DateUTC
2013-02-13 00:00:00,44.9,41.6,29.84,NNW,341,0.0,3.0,88,0.00,,OVC042,0.02,VWS V14.01,2013-02-13 06:00:00,
2013-02-13 00:05:00,44.8,41.8,29.84,NNW,346,1.0,2.0,89,0.00,,OVC034,0.00,VWS V14.01,2013-02-13 06:05:00,
2013-02-13 00:10:00,44.7,41.7,29.84,North,5,3.0,4.0,89,0.00,,OVC034,0.00,VWS V14.01,2013-02-13 06:10:00,
2013-02-13 00:15:00,44.6,41.8,29.83,North,5,1.0,4.0,90,0.00,,OVC034,0.00,VWS V14.01,2013-02-13 06:15:00,
2013-02-13 00:20:00,44.5,41.8,29.83,NNW,346,0.0,6.0,90,0.00,,OVC034,0.00,VWS V14.01,2013-02-13 06:20:00,
2013-02-13 00:25:00,44.4,41.9,29.84,NNW,345,1.0,2.0,91,0.01,,OVC034,0.01,VWS V14.01,2013-02-13 06:25:00,
2013-02-13 00:30:00,44.3,41.8,29.84,NNW,333,0.0,3.0,91,0.01,,OVC034,0.01,VWS V14.01,2013-02-13 06:30:00,
2013-02-13 00:35:00,44.2,41.7,29.84,NNW,339,1.0,2.0,91,0.01,,OVC034,0.01,VWS V14.01,2013-02-13 06:35:00,
2013-02-13 00:40:00,44.1,41.9,29.84,NNW,343,1.0,3.0,92,0.02,,OVC034,0.02,VWS V14.01,2013-02-13 06:40:00,
2013-02-13 00:45:00,44.0,41.8,29.83,North,10,1.0,5.0,92,0.02,,OVC034,0.02,VWS V14.01,2013-02-13 06:45:00,
2013-02-13 00:50:00,43.7,41.5,29.83,North,5,1.0,4.0,92,0.02,,OVC034,0.02,VWS V14.01,2013-02-13 06:50:00,
2013-02-13 00:55:00,43.4,41.2,29.83,NNW,337,1.0,5.0,92,0.02,,OVC034,0.02,VWS V14.01,2013-02-13 06:55:00,
2013-02-13 01:00:00,43.1,40.9,29.83,NE,40,0.0,4.0,92,0.02,,OVC034,0.02,VWS V14.01,2013-02-13 07:00:00,
2013-02-13 01:05:00,42.8,40.6,29.83,NNE,20,1.0,4.0,92,0.03,,OVC034,0.03,VWS V14.01,2013-02-13 07:05:00,
2013-02-13 01:10:00,42.7,40.5,29.83,North,360,0.0,3.0,92,0.03,,-RA,0.03,VWS V14.01,2013-02-13 07:10:00,
2013-02-13 01:15:00,42.5,40.3,29.83,NNW,348,2.0,4.0,92,0.03,,-RA,0.03,VWS V14.01,2013-02-13 07:15:00,
2013-02-13 01:20:00,42.4,40.5,29.82,NNW,342,0.0,5.0,93,0.03,,-RA,0.03,VWS V14.01,2013-02-13 07:20:00,
2013-02-13 01:25:00,42.3,40.4,29.82,NE,36,0.0,3.0,93,0.03,,-RA,0.03,VWS V14.01,2013-02-13 07:25:00,
2013-02-13 01:30:00,42.2,40.3,29.82,NNE,14,2.0,2.0,93,0.02,,-RA,0.03,VWS V14.01,2013-02-13 07:30:00,
2013-02-13 01:35:00,42.2,40.3,29.82,NNW,343,3.0,3.0,93,0.02,,-RA,0.03,VWS V14.01,2013-02-13 07:35:00,
2013-02-13 01:40:00,42.1,40.2,29.82,North,5,0.0,4.0,93,0.02,,-RA,0.03,VWS V14.01,2013-02-13 07:40:00,
2013-02-13 01:45:00,42.1,40.2,29.82,NNW,346,0.0,3.0,93,0.02,,-RA,0.04,VWS V14.01,2013-02-13 07:45:00,
2013-02-13 01:50:00,42.0,40.1,29.82,North,355,0.0,3.0,93,0.02,,-RA,0.04,VWS V14.01,2013-02-13 07:50:00,
2013-02-13 01:55:00,42.0,40.1,29.82,NE,36,2.0,3.0,93,0.02,,-RA,0.04,VWS V14.01,2013-02-13 07:55:00,
2013-02-13 02:00:00,41.9,40.0,29.82,NNW,346,0.0,5.0,93,0.02,,-RA,0.04,VWS V14.01,2013-02-13 08:00:00,
2013-02-13 02:05:00,41.9,40.3,29.82,North,355,1.0,6.0,94,0.01,,-RA,0.04,VWS V14.01,2013-02-13 08:05:00,
2013-02-13 02:10:00,41.8,40.2,29.82,NNW,344,1.0,5.0,94,0.01,,-RA,0.04,VWS V14.01,2013-02-13 08:10:00,
2013-02-13 02:15:00,41.8,40.2,29.82,NNW,348,0.0,8.0,94,0.01,,-RA,0.04,VWS V14.01,2013-02-13 08:15:00,
2013-02-13 02:20:00,41.8,40.2,29.82,North,5,2.0,8.0,94,0.01,,-RA,0.04,VWS V14.01,2013-02-13 08:20:00,
2013-02-13 02:25:00,41.7,40.1,29.82,NNW,332,2.0,7.0,94,0.01,,-RA,0.04,VWS V14.01,2013-02-13 08:25:00,
2013-02-13 02:30:00,41.7,40.1,29.82,North,355,4.0,8.0,94,0.01,,-RA,0.04,VWS V14.01,2013-02-13 08:30:00,
2013-02-13 02:35:00,41.7,40.1,29.82,North,360,1.0,4.0,94,0.01,,-RA,0.04,VWS V14.01,2013-02-13 08:35:00,
2013-02-13 02:40:00,41.6,40.0,29.82,NNW,330,3.0,4.0,94,0.02,,-RA,0.05,VWS V14.01,2013-02-13 08:40:00,
2013-02-13 02:45:00,41.6,40.0,29.82,NNW,334,1.0,6.0,94,0.01,,-RA,0.05,VWS V14.01,2013-02-13 08:45:00,
2013-02-13 02:50:00,41.6,40.0,29.82,NNW,345,1.0,4.0,94,0.01,,-RA,0.05,VWS V14.01,2013-02-13 08:50:00,
2013-02-13 02:55:00,41.6,40.0,29.82,North,355,1.0,3.0,94,0.01,,-RA,0.05,VWS V14.01,2013-02-13 08:55:00,
2013-02-13 03:00:00,41.6,40.0,29.82,NNW,346,0.0,6.0,94,0.01,,-RA,0.05,VWS V14.01,2013-02-13 09:00:00,
2013-02-13 03:05:00,41.5,39.9,29.81,NNE,25,3.0,6.0,94,0.01,,OVC008,0.05,VWS V14.01,2013-02-13 09:05:00,
2013-02-13 03:10:00,41.5,39.9,29.82,NNE,17,3.0,5.0,94,0.01,,OVC008,0.05,VWS V14.01,2013-02-13 09:10:00,
2013-02-13 03:15:00,41.5,39.9,29.81,North,5,0.0,6.0,94,0.01,,OVC008,0.05,VWS V14.01,2013-02-13 09:15:00,
2013-02-13 03:20:00,41.5,39.9,29.81,NNW,338,1.0,6.0,94,0.02,,OVC008,0.06,VWS V14.01,2013-02-13 09:20:00,
2013-02-13 03:25:00,41.5,39.9,29.82,North,5,0.0,4.0,94,0.02,,OVC008,0.06,VWS V14.01,2013-02-13 09:25:00,
2013-02-13 03:30:00,41.5,39.9,29.82,North,360,1.0,6.0,94,0.02,,OVC008,0.06,VWS V14.01,2013-02-13 09:30:00,
2013-02-13 03:35:00,41.5,39.9,29.82,NNE,22,5.0,6.0,94,0.02,,OVC008,0.06,VWS V14.01,2013-02-13 09:35:00,
2013-02-13 03:40:00,41.5,39.9,29.82,NNW,345,7.0,7.0,94,0.02,,OVC008,0.06,VWS V14.01,2013-02-13 09:40:00,
2013-02-13 03:45:00,41.4,39.8,29.82,North,355,3.0,7.0,94,0.01,,OVC008,0.06,VWS V14.01,2013-02-13 09:45:00,
2013-02-13 03:50:00,41.4,39.8,29.82,North,360,5.0,5.0,94,0.01,,OVC008,0.06,VWS V14.01,2013-02-13 09:50:00,
2013-02-13 03:55:00,41.4,39.8,29.82,North,360,0.0,7.0,94,0.01,,OVC008,0.06,VWS V14.01,2013-02-13 09:55:00,
2013-02-13 04:00:00,41.3,39.7,29.82,NNE,19,3.0,10.0,94,0.01,,OVC008,0.06,VWS V14.01,2013-02-13 10:00:00,
2013-02-13 04:05:00,41.3,39.7,29.82,North,5,5.0,11.0,94,0.01,,OVC008,0.06,VWS V14.01,2013-02-13 10:05:00,
2013-02-13 04:10:00,41.2,39.6,29.82,NNW,340,0.0,6.0,94,0.01,,OVC008,0.06,VWS V14.01,2013-02-13 10:10:00,
2013-02-13 04:15:00,41.2,39.6,29.83,NNW,331,5.0,6.0,94,0.01,,OVC008,0.06,VWS V14.01,2013-02-13 10:15:00,
2013-02-13 04:20:00,41.2,39.6,29.83,NNW,337,4.0,8.0,94,0.00,,OVC008,0.06,VWS V14.01,2013-02-13 10:20:00,
2013-02-13 04:25:00,41.1,39.5,29.83,NNW,329,5.0,7.0,94,0.00,,OVC008,0.06,VWS V14.01,2013-02-13 10:25:00,
2013-02-13 04:30:00,41.1,39.5,29.83,NW,325,13.0,13.0,94,0.01,,OVC008,0.07,VWS V14.01,2013-02-13 10:30:00,
2013-02-13 04:35:00,40.9,39.3,29.83,NNW,338,2.0,7.0,94,0.01,,OVC008,0.07,VWS V14.01,2013-02-13 10:35:00,
2013-02-13 04:40:00,40.9,39.3,29.83,NNE,12,7.0,8.0,94,0.01,,OVC008,0.07,VWS V14.01,2013-02-13 10:40:00,
2013-02-13 04:45:00,40.9,39.3,29.84,NNW,331,2.0,9.0,94,0.01,,OVC008,0.07,VWS V14.01,2013-02-13 10:45:00,
2013-02-13 04:50:00,40.8,39.2,29.84,NNW,328,3.0,10.0,94,0.01,,OVC008,0.07,VWS V14.01,2013-02-13 10:50:00,
2013-02-13 04:55:00,40.7,39.1,29.85,NNW,345,7.0,10.0,94,0.01,,OVC008,0.07,VWS V14.01,2013-02-13 10:55:00,
2013-02-13 05:00:00,40.5,38.6,29.86,NW,323,3.0,12.0,93,0.01,,OVC008,0.07,VWS V14.01,2013-02-13 11:00:00,
2013-02-13 05:05:00,40.3,38.4,29.86,North,360,3.0,6.0,93,0.01,,OVC016,0.07,VWS V14.01,2013-02-13 11:05:00,
2013-02-13 05:10:00,40.2,38.3,29.86,North,350,8.0,9.0,93,0.01,,OVC016,0.07,VWS V14.01,2013-02-13 11:10:00,
2013-02-13 05:15:00,40.1,38.2,29.86,NE,36,4.0,8.0,93,0.01,,OVC016,0.07,VWS V14.01,2013-02-13 11:15:00,
2013-02-13 05:20:00,40.1,38.2,29.87,NNE,15,5.0,6.0,93,0.01,,OVC016,0.07,VWS V14.01,2013-02-13 11:20:00,
2013-02-13 05:25:00,40.1,38.2,29.87,North,360,3.0,7.0,93,0.01,,OVC016,0.07,VWS V14.01,2013-02-13 11:25:00,
2013-02-13 05:30:00,40.0,38.1,29.87,NNE,13,3.0,7.0,93,0.01,,OVC016,0.07,VWS V14.01,2013-02-13 11:30:00,
2013-02-13 05:35:00,39.9,38.0,29.87,NNW,333,5.0,13.0,93,0.00,,OVC016,0.07,VWS V14.01,2013-02-13 11:35:00,
2013-02-13 05:40:00,39.9,38.0,29.88,NNW,334,5.0,5.0,93,0.00,,OVC016,0.07,VWS V14.01,2013-02-13 11:40:00,
2013-02-13 05:45:00,39.9,38.0,29.88,NE,49,4.0,9.0,93,0.00,,OVC016,0.07,VWS V14.01,2013-02-13 11:45:00,
2013-02-13 05:50:00,39.8,38.0,29.88,NNW,346,2.0,6.0,93,0.01,,OVC016,0.08,VWS V14.01,2013-02-13 11:50:00,
2013-02-13 05:55:00,39.7,37.8,29.89,NNW,336,6.0,11.0,93,0.01,,OVC016,0.08,VWS V14.01,2013-02-13 11:55:00,
2013-02-13 06:00:00,39.6,37.8,29.89,North,355,7.0,7.0,93,0.01,,OVC016,0.08,VWS V14.01,2013-02-13 12:00:00,
2013-02-13 06:05:00,39.6,37.8,29.89,North,5,7.0,14.0,93,0.01,,,0.08,VWS V14.01,2013-02-13 12:05:00,
2013-02-13 06:10:00,39.5,37.7,29.89,NNW,346,0.0,6.0,93,0.01,,,0.08,VWS V14.01,2013-02-13 12:10:00,
2013-02-13 06:15:00,39.5,37.7,29.90,NW,321,2.0,8.0,93,0.01,,,0.08,VWS V14.01,2013-02-13 12:15:00,
2013-02-13 06:20:00,39.5,37.7,29.90,NW,325,5.0,8.0,93,0.01,,,0.08,VWS V14.01,2013-02-13 12:20:00,
2013-02-13 06:25:00,39.4,37.5,29.90,North,350,4.0,9.0,93,0.01,,,0.08,VWS V14.01,2013-02-13 12:25:00,
2013-02-13 06:30:00,39.3,37.5,29.90,NNW,343,4.0,5.0,93,0.01,,,0.08,VWS V14.01,2013-02-13 12:30:00,
2013-02-13 06:35:00,39.4,37.5,29.90,NNW,346,4.0,6.0,93,0.01,,,0.08,VWS V14.01,2013-02-13 12:35:00,
2013-02-13 06:40:00,39.3,37.5,29.90,North,10,4.0,9.0,93,0.01,,,0.08,VWS V14.01,2013-02-13 12:40:00,
2013-02-13 06:45:00,39.2,37.3,29.90,North,360,1.0,8.0,93,0.01,,,0.08,VWS V14.01,2013-02-13 12:45:00,
2013-02-13 06:50:00,39.2,37.3,29.90,NNW,344,7.0,8.0,93,0.01,,,0.08,VWS V14.01,2013-02-13 12:50:00,
2013-02-13 06:55:00,39.1,37.2,29.91,NNW,347,7.0,9.0,93,0.00,,,0.08,VWS V14.01,2013-02-13 12:55:00,
2013-02-13 07:00:00,39.1,37.2,29.91,NE,34,1.0,6.0,93,0.00,,,0.08,VWS V14.01,2013-02-13 13:00:00,
2013-02-13 07:05:00,39.1,37.2,29.91,NNW,344,0.0,8.0,93,0.00,,,0.08,VWS V14.01,2013-02-13 13:05:00,
2013-02-13 07:10:00,39.0,37.2,29.92,NNE,28,3.0,9.0,93,0.00,,,0.08,VWS V14.01,2013-02-13 13:10:00,
2013-02-13 07:15:00,39.0,36.9,29.92,North,355,1.0,5.0,92,0.00,,,0.08,VWS V14.01,2013-02-13 13:15:00,
2013-02-13 07:20:00,39.1,37.2,29.92,NNW,342,0.0,5.0,93,0.00,,,0.08,VWS V14.01,2013-02-13 13:20:00,
2013-02-13 07:25:00,39.1,37.0,29.92,NNW,342,1.0,4.0,92,0.00,,,0.08,VWS V14.01,2013-02-13 13:25:00,
2013-02-13 07:30:00,39.1,37.2,29.92,NNW,346,7.0,10.0,93,0.00,,,0.08,VWS V14.01,2013-02-13 13:30:00,
2013-02-13 07:35:00,39.1,37.0,29.92,NNW,331,1.0,5.0,92,0.00,,,0.08,VWS V14.01,2013-02-13 13:35:00,
2013-02-13 07:40:00,39.1,37.0,29.93,NNE,28,2.0,5.0,92,0.00,,,0.08,VWS V14.01,2013-02-13 13:40:00,
2013-02-13 07:45:00,39.2,37.1,29.93,NNW,338,2.0,3.0,92,0.00,,,0.08,VWS V14.01,2013-02-13 13:45:00,
2013-02-13 07:50:00,39.2,37.1,29.94,NNW,347,0.0,5.0,92,0.00,,,0.08,VWS V14.01,2013-02-13 13:50:00,
2013-02-13 07:55:00,39.2,37.1,29.94,North,5,2.0,7.0,92,0.00,,,0.08,VWS V14.01,2013-02-13 13:55:00,
2013-02-13 08:00:00,39.3,37.2,29.94,NNE,17,1.0,6.0,92,0.00,,,0.08,VWS V14.01,2013-02-13 14:00:00,
2013-02-13 08:05:00,39.4,37.3,29.95,North,9,1.0,5.0,92,0.00,,,0.08,VWS V14.01,2013-02-13 14:05:00,
2013-02-13 08:10:00,39.5,37.4,29.95,NNW,344,1.0,6.0,92,0.00,,,0.08,VWS V14.01,2013-02-13 14:10:00,
2013-02-13 08:15:00,39.5,37.4,29.96,NW,306,1.0,6.0,92,0.00,,,0.08,VWS V14.01,2013-02-13 14:15:00,
2013-02-13 08:20:00,39.5,37.4,29.96,NNW,342,3.0,8.0,92,0.00,,,0.08,VWS V14.01,2013-02-13 14:20:00,
2013-02-13 08:25:00,39.5,37.4,29.96,North,360,3.0,4.0,92,0.00,,,0.08,VWS V14.01,2013-02-13 14:25:00,
2013-02-13 08:30:00,39.5,37.4,29.97,NNW,327,3.0,5.0,92,0.00,,,0.08,VWS V14.01,2013-02-13 14:30:00,
2013-02-13 08:35:00,39.6,37.5,29.97,NNW,331,1.0,4.0,92,0.00,,,0.08,VWS V14.01,2013-02-13 14:35:00,
2013-02-13 08:40:00,39.6,37.5,29.98,NNW,347,1.0,7.0,92,0.00,,,0.08,VWS V14.01,2013-02-13 14:40:00,
2013-02-13 08:45:00,39.7,37.6,29.98,NNW,346,2.0,3.0,92,0.00,,,0.08,VWS V14.01,2013-02-13 14:45:00,
2013-02-13 08:50:00,39.7,37.6,29.98,NNW,344,2.0,5.0,92,0.00,,,0.08,VWS V14.01,2013-02-13 14:50:00,
2013-02-13 08:55:00,39.8,37.7,29.98,NNE,15,0.0,3.0,92,0.00,,,0.08,VWS V14.01,2013-02-13 14:55:00,
2013-02-13 09:00:00,39.9,37.8,29.98,North,350,4.0,5.0,92,0.00,,,0.08,VWS V14.01,2013-02-13 15:00:00,
2013-02-13 09:05:00,40.0,37.9,29.97,NW,321,0.0,5.0,92,0.00,,,0.08,VWS V14.01,2013-02-13 15:05:00,
2013-02-13 09:10:00,40.1,37.7,29.98,NNW,330,0.0,3.0,91,0.00,,,0.08,VWS V14.01,2013-02-13 15:10:00,
2013-02-13 09:15:00,40.3,37.9,29.98,NW,317,4.0,4.0,91,0.00,,,0.08,VWS V14.01,2013-02-13 15:15:00,
2013-02-13 09:20:00,40.4,38.0,29.98,NNW,328,0.0,3.0,91,0.00,,,0.08,VWS V14.01,2013-02-13 15:20:00,
2013-02-13 09:25:00,40.6,38.5,29.98,NNW,331,0.0,4.0,92,0.00,,,0.08,VWS V14.01,2013-02-13 15:25:00,
2013-02-13 09:30:00,40.8,38.4,29.98,NNW,346,0.0,3.0,91,0.00,,,0.08,VWS V14.01,2013-02-13 15:30:00,
2013-02-13 09:35:00,41.1,39.0,29.98,NNW,335,4.0,5.0,92,0.00,,,0.08,VWS V14.01,2013-02-13 15:35:00,
2013-02-13 09:40:00,41.3,38.9,29.98,North,355,2.0,6.0,91,0.00,,,0.08,VWS V14.01,2013-02-13 15:40:00,
2013-02-13 09:45:00,41.4,39.0,29.98,NNW,332,1.0,5.0,91,0.00,,,0.08,VWS V14.01,2013-02-13 15:45:00,
2013-02-13 09:50:00,41.7,39.3,29.98,NNW,339,2.0,8.0,91,0.00,,,0.08,VWS V14.01,2013-02-13 15:50:00,
2013-02-13 09:55:00,42.3,39.9,29.99,WNW,286,0.0,4.0,91,0.00,,,0.08,VWS V14.01,2013-02-13 15:55:00,
2013-02-13 10:00:00,42.4,40.0,29.99,NW,308,4.0,5.0,91,0.00,,,0.08,VWS V14.01,2013-02-13 16:00:00,
2013-02-13 10:05:00,42.3,39.6,29.99,NNE,25,1.0,6.0,90,0.00,,,0.08,VWS V14.01,2013-02-13 16:05:00,
2013-02-13 10:10:00,42.1,39.1,30.00,NNW,340,7.0,7.0,89,0.00,,,0.08,VWS V14.01,2013-02-13 16:10:00,
2013-02-13 10:15:00,42.0,39.0,30.00,WNW,302,2.0,7.0,89,0.00,,,0.08,VWS V14.01,2013-02-13 16:15:00,
2013-02-13 10:20:00,41.9,38.9,30.00,NW,310,3.0,7.0,89,0.00,,,0.08,VWS V14.01,2013-02-13 16:20:00,
2013-02-13 10:25:00,41.9,38.9,30.00,NNW,329,2.0,7.0,89,0.00,,,0.08,VWS V14.01,2013-02-13 16:25:00,
2013-02-13 10:30:00,42.1,39.1,30.01,NW,323,5.0,8.0,89,0.00,,,0.08,VWS V14.01,2013-02-13 16:30:00,
2013-02-13 10:35:00,42.0,39.0,30.01,NNW,338,3.0,8.0,89,0.00,,,0.08,VWS V14.01,2013-02-13 16:35:00,
2013-02-13 10:40:00,41.9,38.9,30.01,NW,318,2.0,7.0,89,0.00,,,0.08,VWS V14.01,2013-02-13 16:40:00,
2013-02-13 10:45:00,41.8,38.5,30.02,WSW,255,0.0,9.0,88,0.00,,,0.08,VWS V14.01,2013-02-13 16:45:00,
2013-02-13 10:50:00,41.7,38.4,30.02,NW,312,0.0,5.0,88,0.00,,,0.08,VWS V14.01,2013-02-13 16:50:00,
2013-02-13 10:55:00,41.5,38.2,30.02,NNW,331,0.0,8.0,88,0.00,,,0.08,VWS V14.01,2013-02-13 16:55:00,
2013-02-13 11:00:00,41.5,38.5,30.02,NNW,339,1.0,8.0,89,0.00,,,0.08,VWS V14.01,2013-02-13 17:00:00,
2013-02-13 11:05:00,41.4,38.4,30.02,NW,313,0.0,7.0,89,0.00,,,0.08,VWS V14.01,2013-02-13 17:05:00,
2013-02-13 11:10:00,41.5,38.5,30.03,WNW,299,2.0,6.0,89,0.00,,,0.08,VWS V14.01,2013-02-13 17:10:00,
2013-02-13 11:15:00,41.4,38.4,30.03,North,360,1.0,7.0,89,0.00,,,0.08,VWS V14.01,2013-02-13 17:15:00,
2013-02-13 11:20:00,41.4,38.4,30.03,NNW,332,2.0,6.0,89,0.00,,,0.08,VWS V14.01,2013-02-13 17:20:00,
2013-02-13 11:25:00,41.5,38.5,30.03,NNE,31,0.0,6.0,89,0.00,,,0.08,VWS V14.01,2013-02-13 17:25:00,
2013-02-13 11:30:00,41.5,38.2,30.03,WNW,297,2.0,6.0,88,0.00,,,0.08,VWS V14.01,2013-02-13 17:30:00,
2013-02-13 11:35:00,41.5,38.2,30.03,North,355,4.0,6.0,88,0.00,,,0.08,VWS V14.01,2013-02-13 17:35:00,
2013-02-13 11:40:00,41.6,38.3,30.03,NNW,342,0.0,3.0,88,0.00,,,0.08,VWS V14.01,2013-02-13 17:40:00,
2013-02-13 11:45:00,41.8,38.8,30.03,NNW,346,4.0,5.0,89,0.00,,,0.08,VWS V14.01,2013-02-13 17:45:00,
2013-02-13 11:50:00,41.9,38.9,30.03,NW,321,3.0,4.0,89,0.00,,,0.08,VWS V14.01,2013-02-13 17:50:00,
2013-02-13 11:55:00,41.9,38.6,30.03,NNW,338,0.0,7.0,88,0.00,,,0.08,VWS V14.01,2013-02-13 17:55:00,
2013-02-13 12:00:00,41.8,38.5,30.03,NW,323,1.0,6.0,88,0.00,,,0.08,VWS V14.01,2013-02-13 18:00:00,
2013-02-13 12:05:00,41.8,38.5,30.03,North,355,0.0,9.0,88,0.00,,,0.08,VWS V14.01,2013-02-13 18:05:00,
2013-02-13 12:10:00,41.9,38.6,30.03,NNW,329,10.0,10.0,88,0.00,,OVC012,0.08,VWS V14.01,2013-02-13 18:10:00,
2013-02-13 12:15:00,41.8,38.5,30.03,WNW,295,4.0,9.0,88,0.00,,OVC012,0.08,VWS V14.01,2013-02-13 18:15:00,
2013-02-13 12:20:00,41.8,38.5,30.03,NNW,344,4.0,7.0,88,0.00,,OVC012,0.08,VWS V14.01,2013-02-13 18:20:00,
2013-02-13 12:25:00,41.8,38.5,30.03,WNW,294,3.0,5.0,88,0.00,,OVC012,0.08,VWS V14.01,2013-02-13 18:25:00,
2013-02-13 12:30:00,41.8,38.5,30.02,West,265,1.0,8.0,88,0.00,,OVC012,0.08,VWS V14.01,2013-02-13 18:30:00,
2013-02-13 12:35:00,41.8,38.8,30.02,NW,318,0.0,5.0,89,0.00,,OVC012,0.08,VWS V14.01,2013-02-13 18:35:00,
2013-02-13 12:40:00,41.7,38.7,30.03,North,355,5.0,6.0,89,0.00,,OVC012,0.08,VWS V14.01,2013-02-13 18:40:00,
2013-02-13 12:45:00,41.7,38.7,30.03,WNW,292,0.0,8.0,89,0.00,,OVC012,0.08,VWS V14.01,2013-02-13 18:45:00,
2013-02-13 12:50:00,41.7,38.7,30.03,NNW,346,0.0,3.0,89,0.00,,OVC012,0.08,VWS V14.01,2013-02-13 18:50:00,
2013-02-13 12:55:00,41.7,38.7,30.02,NNW,332,1.0,9.0,89,0.00,,OVC012,0.08,VWS V14.01,2013-02-13 18:55:00,
2013-02-13 13:00:00,41.7,39.0,30.02,West,279,0.0,4.0,90,0.00,,OVC012,0.08,VWS V14.01,2013-02-13 19:00:00,
2013-02-13 13:05:00,41.8,39.1,30.02,WNW,302,1.0,1.0,90,0.00,,OVC012,0.08,VWS V14.01,2013-02-13 19:05:00,
2013-02-13 13:10:00,41.9,39.2,30.02,NNW,342,3.0,3.0,90,0.00,,OVC012,0.08,VWS V14.01,2013-02-13 19:10:00,
2013-02-13 13:15:00,41.8,38.8,30.01,NNW,340,4.0,4.0,89,0.00,,OVC012,0.08,VWS V14.01,2013-02-13 19:15:00,
2013-02-13 13:20:00,41.9,38.9,30.01,WNW,292,0.0,4.0,89,0.00,,OVC012,0.08,VWS V14.01,2013-02-13 19:20:00,
2013-02-13 13:25:00,41.9,39.2,30.01,WNW,289,0.0,5.0,90,0.00,,OVC012,0.08,VWS V14.01,2013-02-13 19:25:00,
2013-02-13 13:30:00,42.0,39.0,30.01,NNW,329,0.0,1.0,89,0.00,,OVC012,0.08,VWS V14.01,2013-02-13 19:30:00,
2013-02-13 13:35:00,42.2,39.5,30.00,WNW,294,0.0,5.0,90,0.00,,OVC012,0.08,VWS V14.01,2013-02-13 19:35:00,
2013-02-13 13:40:00,42.3,39.3,30.00,West,281,3.0,4.0,89,0.00,,OVC012,0.08,VWS V14.01,2013-02-13 19:40:00,
2013-02-13 13:45:00,42.4,39.4,30.00,NW,324,0.0,3.0,89,0.00,,OVC012,0.08,VWS V14.01,2013-02-13 19:45:00,
2013-02-13 13:50:00,42.7,40.0,30.00,NNW,336,0.0,1.0,90,0.00,,OVC012,0.08,VWS V14.01,2013-02-13 19:50:00,
2013-02-13 13:55:00,42.8,39.8,30.00,WSW,245,1.0,4.0,89,0.00,,OVC012,0.08,VWS V14.01,2013-02-13 19:55:00,
2013-02-13 14:00:00,42.8,39.5,30.00,West,274,0.0,2.0,88,0.00,,OVC012,0.08,VWS V14.01,2013-02-13 20:00:00,
2013-02-13 14:05:00,42.9,39.6,30.00,WNW,286,0.0,2.0,88,0.00,,OVC012,0.08,VWS V14.01,2013-02-13 20:05:00,
2013-02-13 14:10:00,43.2,39.9,30.00,West,278,0.0,3.0,88,0.00,,OVC012,0.08,VWS V14.01,2013-02-13 20:10:00,
2013-02-13 14:15:00,43.4,40.1,30.00,West,263,0.0,4.0,88,0.00,,OVC012,0.08,VWS V14.01,2013-02-13 20:15:00,
2013-02-13 14:20:00,43.4,40.1,30.00,West,274,1.0,3.0,88,0.00,,OVC012,0.08,VWS V14.01,2013-02-13 20:20:00,
2013-02-13 14:25:00,43.4,39.5,29.99,NW,305,0.0,3.0,86,0.00,,OVC012,0.08,VWS V14.01,2013-02-13 20:25:00,
2013-02-13 14:30:00,43.3,39.7,29.99,WNW,285,0.0,3.0,87,0.00,,OVC012,0.08,VWS V14.01,2013-02-13 20:30:00,
2013-02-13 14:35:00,43.5,39.9,29.99,WNW,285,1.0,1.0,87,0.00,,OVC012,0.08,VWS V14.01,2013-02-13 20:35:00,
2013-02-13 14:40:00,43.7,39.8,29.99,WSW,251,0.0,3.0,86,0.00,,OVC012,0.08,VWS V14.01,2013-02-13 20:40:00,
2013-02-13 14:45:00,43.8,39.6,29.98,WNW,292,0.0,4.0,85,0.00,,OVC012,0.08,VWS V14.01,2013-02-13 20:45:00,
2013-02-13 14:50:00,44.0,40.1,29.99,WNW,296,2.0,5.0,86,0.00,,OVC012,0.08,VWS V14.01,2013-02-13 20:50:00,
2013-02-13 14:55:00,44.0,39.8,29.99,WNW,288,1.0,4.0,85,0.00,,OVC012,0.08,VWS V14.01,2013-02-13 20:55:00,
2013-02-13 15:00:00,44.0,39.8,29.99,WSW,247,0.0,5.0,85,0.00,,OVC012,0.08,VWS V14.01,2013-02-13 21:00:00,
2013-02-13 15:05:00,44.0,39.8,29.99,WSW,237,1.0,3.0,85,0.00,,OVC014,0.08,VWS V14.01,2013-02-13 21:05:00,
2013-02-13 15:10:00,43.9,39.4,29.99,SW,229,0.0,4.0,84,0.00,,OVC014,0.08,VWS V14.01,2013-02-13 21:10:00,
2013-02-13 15:15:00,44.0,39.8,29.99,WNW,295,3.0,5.0,85,0.00,,OVC014,0.08,VWS V14.01,2013-02-13 21:15:00,
2013-02-13 15:20:00,44.1,39.6,30.00,West,277,0.0,5.0,84,0.00,,OVC014,0.08,VWS V14.01,2013-02-13 21:20:00,
2013-02-13 15:25:00,44.3,39.8,30.00,NNW,327,0.0,2.0,84,0.00,,OVC014,0.08,VWS V14.01,2013-02-13 21:25:00,
2013-02-13 15:30:00,44.4,39.9,30.00,WNW,297,1.0,2.0,84,0.00,,OVC014,0.08,VWS V14.01,2013-02-13 21:30:00,
2013-02-13 15:35:00,44.3,39.5,29.99,WSW,257,0.0,2.0,83,0.00,,OVC014,0.08,VWS V14.01,2013-02-13 21:35:00,
2013-02-13 15:40:00,44.2,39.7,29.99,SW,214,1.0,2.0,84,0.00,,OVC014,0.08,VWS V14.01,2013-02-13 21:40:00,
2013-02-13 15:45:00,44.3,39.8,29.99,SW,214,0.0,2.0,84,0.00,,OVC014,0.08,VWS V14.01,2013-02-13 21:45:00,
2013-02-13 15:50:00,44.6,39.8,29.99,WNW,295,0.0,3.0,83,0.00,,OVC014,0.08,VWS V14.01,2013-02-13 21:50:00,
2013-02-13 15:55:00,44.7,39.5,29.99,WSW,252,0.0,3.0,82,0.00,,OVC014,0.08,VWS V14.01,2013-02-13 21:55:00,
2013-02-13 16:00:00,44.9,40.1,29.99,WNW,284,3.0,4.0,83,0.00,,OVC014,0.08,VWS V14.01,2013-02-13 22:00:00,
2013-02-13 16:05:00,45.1,39.9,29.99,WNW,285,0.0,2.0,82,0.00,,OVC024,0.08,VWS V14.01,2013-02-13 22:05:00,
2013-02-13 16:10:00,45.0,39.5,29.99,WSW,238,3.0,4.0,81,0.00,,OVC024,0.08,VWS V14.01,2013-02-13 22:10:00,
2013-02-13 16:15:00,44.9,39.8,29.99,SW,229,0.0,3.0,82,0.00,,OVC024,0.08,VWS V14.01,2013-02-13 22:15:00,
2013-02-13 16:20:00,44.9,39.8,29.99,WSW,244,1.0,4.0,82,0.00,,OVC024,0.08,VWS V14.01,2013-02-13 22:20:00,
2013-02-13 16:25:00,44.9,39.4,29.99,SW,215,3.0,4.0,81,0.00,,OVC024,0.08,VWS V14.01,2013-02-13 22:25:00,
2013-02-13 16:30:00,45.0,39.5,29.99,SW,234,0.0,5.0,81,0.00,,OVC024,0.08,VWS V14.01,2013-02-13 22:30:00,
2013-02-13 16:35:00,45.0,39.5,29.99,WNW,286,3.0,4.0,81,0.00,,OVC024,0.08,VWS V14.01,2013-02-13 22:35:00,
2013-02-13 16:40:00,45.1,39.3,29.99,WNW,297,1.0,4.0,80,0.00,,OVC024,0.08,VWS V14.01,2013-02-13 22:40:00,
2013-02-13 16:45:00,45.1,39.3,29.99,WNW,302,0.0,3.0,80,0.00,,OVC024,0.08,VWS V14.01,2013-02-13 22:45:00,
2013-02-13 16:50:00,45.1,39.3,29.99,West,262,0.0,6.0,80,0.00,,OVC024,0.08,VWS V14.01,2013-02-13 22:50:00,
2013-02-13 16:55:00,45.0,38.9,29.99,West,259,0.0,2.0,79,0.00,,OVC024,0.08,VWS V14.01,2013-02-13 22:55:00,
2013-02-13 17:00:00,45.0,39.2,29.99,WNW,282,0.0,5.0,80,0.00,,OVC024,0.08,VWS V14.01,2013-02-13 23:00:00,
2013-02-13 17:05:00,44.9,38.8,29.99,WSW,248,1.0,5.0,79,0.00,,OVC024,0.08,VWS V14.01,2013-02-13 23:05:00,
2013-02-13 17:10:00,44.8,39.0,30.00,West,260,1.0,4.0,80,0.00,,OVC024,0.08,VWS V14.01,2013-02-13 23:10:00,
2013-02-13 17:15:00,44.8,39.0,30.00,West,265,0.0,4.0,80,0.00,,OVC024,0.08,VWS V14.01,2013-02-13 23:15:00,
2013-02-13 17:20:00,44.7,38.9,30.00,West,261,0.0,4.0,80,0.00,,OVC024,0.08,VWS V14.01,2013-02-13 23:20:00,
2013-02-13 17:25:00,44.7,39.2,30.00,WSW,247,4.0,6.0,81,0.00,,OVC024,0.08,VWS V14.01,2013-02-13 23:25:00,
2013-02-13 17:30:00,44.6,39.1,30.00,SW,230,0.0,9.0,81,0.00,,OVC024,0.08,VWS V14.01,2013-02-13 23:30:00,
2013-02-13 17:35:00,44.5,39.0,30.00,SW,223,1.0,6.0,81,0.00,,OVC024,0.08,VWS V14.01,2013-02-13 23:35:00,
2013-02-13 17:40:00,44.3,38.5,30.01,WSW,258,2.0,6.0,80,0.00,,OVC024,0.08,VWS V14.01,2013-02-13 23:40:00,
2013-02-13 17:45:00,43.9,38.1,30.01,NW,309,1.0,2.0,80,0.00,,OVC024,0.08,VWS V14.01,2013-02-13 23:45:00,
2013-02-13 17:50:00,43.5,37.8,30.01,WSW,238,0.0,5.0,80,0.00,,OVC024,0.08,VWS V14.01,2013-02-13 23:50:00,
2013-02-13 17:55:00,43.2,37.5,30.00,SW,229,2.0,4.0,80,0.00,,OVC024,0.08,VWS V14.01,2013-02-13 23:55:00,
2013-02-13 18:00:00,42.9,37.5,30.01,SW,229,0.0,1.0,81,0.00,,OVC024,0.08,VWS V14.01,2013-02-14 00:00:00,
2013-02-13 18:05:00,42.5,37.1,30.01,SW,228,0.0,0.0,81,0.00,,SCT024,0.08,VWS V14.01,2013-02-14 00:05:00,
2013-02-13 18:10:00,42.3,36.9,30.01,SW,228,0.0,0.0,81,0.00,,SCT024,0.08,VWS V14.01,2013-02-14 00:10:00,
2013-02-13 18:15:00,42.2,37.1,30.01,SW,229,0.0,0.0,82,0.00,,SCT024,0.08,VWS V14.01,2013-02-14 00:15:00,
2013-02-13 18:20:00,42.0,36.9,30.01,SW,229,0.0,0.0,82,0.00,,SCT024,0.08,VWS V14.01,2013-02-14 00:20:00,
2013-02-13 18:25:00,41.6,36.8,30.01,SW,229,0.0,0.0,83,0.00,,SCT024,0.08,VWS V14.01,2013-02-14 00:25:00,
2013-02-13 18:30:00,41.2,36.4,30.01,SW,229,0.0,0.0,83,0.00,,SCT024,0.08,VWS V14.01,2013-02-14 00:30:00,
2013-02-13 18:35:00,40.9,36.5,30.01,SW,229,0.0,0.0,84,0.00,,SCT024,0.08,VWS V14.01,2013-02-14 00:35:00,
2013-02-13 18:40:00,40.8,36.3,30.02,SW,229,0.0,0.0,84,0.00,,SCT024,0.08,VWS V14.01,2013-02-14 00:40:00,
2013-02-13 18:45:00,40.6,36.5,30.02,SW,229,0.0,0.0,85,0.00,,SCT024,0.08,VWS V14.01,2013-02-14 00:45:00,
2013-02-13 18:50:00,40.3,36.2,30.02,SW,229,0.0,0.0,85,0.00,,SCT024,0.08,VWS V14.01,2013-02-14 00:50:00,
2013-02-13 18:55:00,40.0,36.2,30.02,SW,228,0.0,0.0,86,0.00,,SCT024,0.08,VWS V14.01,2013-02-14 00:55:00,
2013-02-13 19:00:00,39.9,36.1,30.02,SW,229,0.0,0.0,86,0.00,,SCT024,0.08,VWS V14.01,2013-02-14 01:00:00,
2013-02-13 19:05:00,39.7,35.9,30.02,SW,229,0.0,0.0,86,0.00,,SCT100,0.08,VWS V14.01,2013-02-14 01:05:00,
2013-02-13 19:10:00,39.6,35.8,30.02,SW,229,0.0,0.0,86,0.00,,SCT100,0.08,VWS V14.01,2013-02-14 01:10:00,
2013-02-13 19:15:00,39.2,35.7,30.02,SW,229,0.0,0.0,87,0.00,,SCT100,0.08,VWS V14.01,2013-02-14 01:15:00,
2013-02-13 19:20:00,39.0,35.8,30.02,SW,229,0.0,0.0,88,0.00,,SCT100,0.08,VWS V14.01,2013-02-14 01:20:00,
2013-02-13 19:25:00,38.8,35.6,30.02,SW,229,0.0,0.0,88,0.00,,SCT100,0.08,VWS V14.01,2013-02-14 01:25:00,
2013-02-13 19:30:00,38.7,35.5,30.02,SW,229,0.0,0.0,88,0.00,,SCT100,0.08,VWS V14.01,2013-02-14 01:30:00,
2013-02-13 19:35:00,38.4,35.5,30.02,SW,229,0.0,0.0,89,0.00,,SCT100,0.08,VWS V14.01,2013-02-14 01:35:00,
2013-02-13 19:40:00,38.4,35.5,30.02,SW,229,0.0,0.0,89,0.00,,SCT100,0.08,VWS V14.01,2013-02-14 01:40:00,
2013-02-13 19:45:00,38.4,35.7,30.02,SW,228,0.0,0.0,90,0.00,,SCT100,0.08,VWS V14.01,2013-02-14 01:45:00,
2013-02-13 19:50:00,38.5,35.8,30.03,SW,229,0.0,0.0,90,0.00,,SCT100,0.08,VWS V14.01,2013-02-14 01:50:00,
2013-02-13 19:55:00,38.5,35.8,30.02,SW,229,0.0,0.0,90,0.00,,SCT100,0.08,VWS V14.01,2013-02-14 01:55:00,
2013-02-13 20:00:00,38.4,35.7,30.02,SW,229,0.0,0.0,90,0.00,,SCT100,0.08,VWS V14.01,2013-02-14 02:00:00,
2013-02-13 20:05:00,38.3,35.6,30.02,SW,229,0.0,0.0,90,0.00,,SCT100,0.08,VWS V14.01,2013-02-14 02:05:00,
2013-02-13 20:10:00,38.1,35.4,30.02,SW,229,0.0,0.0,90,0.00,,SCT100,0.08,VWS V14.01,2013-02-14 02:10:00,
2013-02-13 20:15:00,38.2,35.5,30.02,SW,228,0.0,0.0,90,0.00,,SCT100,0.08,VWS V14.01,2013-02-14 02:15:00,
2013-02-13 20:20:00,38.2,35.8,30.02,SW,228,0.0,0.0,91,0.00,,SCT100,0.08,VWS V14.01,2013-02-14 02:20:00,
2013-02-13 20:25:00,38.5,36.1,30.02,SW,229,0.0,0.0,91,0.00,,SCT100,0.08,VWS V14.01,2013-02-14 02:25:00,
2013-02-13 20:30:00,38.6,35.9,30.02,SW,223,0.0,2.0,90,0.00,,SCT100,0.08,VWS V14.01,2013-02-14 02:30:00,
2013-02-13 20:35:00,38.7,36.3,30.03,SW,223,0.0,3.0,91,0.00,,SCT100,0.08,VWS V14.01,2013-02-14 02:35:00,
2013-02-13 20:40:00,38.7,36.0,30.03,SW,223,0.0,0.0,90,0.00,,SCT100,0.08,VWS V14.01,2013-02-14 02:40:00,
2013-02-13 20:45:00,38.7,36.0,30.02,SSW,210,0.0,2.0,90,0.00,,SCT100,0.08,VWS V14.01,2013-02-14 02:45:00,
2013-02-13 20:50:00,38.8,36.1,30.03,SSW,210,0.0,2.0,90,0.00,,SCT100,0.08,VWS V14.01,2013-02-14 02:50:00,
2013-02-13 20:55:00,38.8,36.4,30.03,SSW,210,0.0,0.0,91,0.00,,SCT100,0.08,VWS V14.01,2013-02-14 02:55:00,
2013-02-13 21:00:00,38.7,36.0,30.03,SSW,210,0.0,1.0,90,0.00,,SCT100,0.08,VWS V14.01,2013-02-14 03:00:00,
2013-02-13 21:05:00,38.6,35.9,30.03,SSW,210,0.0,0.0,90,0.00,,FEW035,0.08,VWS V14.01,2013-02-14 03:05:00,
2013-02-13 21:10:00,38.4,35.7,30.03,SSW,208,0.0,2.0,90,0.00,,FEW035,0.08,VWS V14.01,2013-02-14 03:10:00,
2013-02-13 21:15:00,38.4,36.0,30.03,SSW,208,0.0,1.0,91,0.00,,FEW035,0.08,VWS V14.01,2013-02-14 03:15:00,
2013-02-13 21:20:00,38.4,36.0,30.03,SSW,208,0.0,0.0,91,0.00,,FEW035,0.08,VWS V14.01,2013-02-14 03:20:00,
2013-02-13 21:25:00,38.4,36.0,30.03,SSW,208,0.0,1.0,91,0.00,,FEW035,0.08,VWS V14.01,2013-02-14 03:25:00,
2013-02-13 21:30:00,38.5,36.1,30.03,SSW,202,1.0,2.0,91,0.00,,FEW035,0.08,VWS V14.01,2013-02-14 03:30:00,
2013-02-13 21:35:00,38.5,36.1,30.04,SSW,201,2.0,2.0,91,0.00,,FEW035,0.08,VWS V14.01,2013-02-14 03:35:00,
2013-02-13 21:40:00,38.6,36.2,30.04,South,173,0.0,3.0,91,0.00,,FEW035,0.08,VWS V14.01,2013-02-14 03:40:00,
2013-02-13 21:45:00,38.7,36.3,30.04,SW,220,1.0,2.0,91,0.00,,FEW035,0.08,VWS V14.01,2013-02-14 03:45:00,
2013-02-13 21:50:00,39.0,36.6,30.04,SSW,199,2.0,4.0,91,0.00,,FEW035,0.08,VWS V14.01,2013-02-14 03:50:00,
2013-02-13 21:55:00,39.1,36.4,30.04,SSW,206,1.0,4.0,90,0.00,,FEW035,0.08,VWS V14.01,2013-02-14 03:55:00,
2013-02-13 22:00:00,39.1,36.4,30.04,SW,219,0.0,5.0,90,0.00,,FEW035,0.08,VWS V14.01,2013-02-14 04:00:00,
2013-02-13 22:05:00,39.1,36.4,30.04,SW,218,1.0,5.0,90,0.00,,FEW035,0.08,VWS V14.01,2013-02-14 04:05:00,
2013-02-13 22:10:00,39.1,36.4,30.04,SSW,208,2.0,4.0,90,0.00,,FEW035,0.08,VWS V14.01,2013-02-14 04:10:00,
2013-02-13 22:15:00,39.1,36.4,30.04,South,189,1.0,2.0,90,0.00,,FEW035,0.08,VWS V14.01,2013-02-14 04:15:00,
2013-02-13 22:20:00,39.1,36.4,30.04,SW,216,0.0,3.0,90,0.00,,FEW035,0.08,VWS V14.01,2013-02-14 04:20:00,
2013-02-13 22:25:00,38.9,36.2,30.05,SSW,209,0.0,2.0,90,0.00,,FEW035,0.08,VWS V14.01,2013-02-14 04:25:00,
2013-02-13 22:30:00,38.8,36.1,30.05,South,184,2.0,2.0,90,0.00,,FEW035,0.08,VWS V14.01,2013-02-14 04:30:00,
2013-02-13 22:35:00,38.9,36.2,30.05,South,182,0.0,3.0,90,0.00,,FEW035,0.08,VWS V14.01,2013-02-14 04:35:00,
2013-02-13 22:40:00,38.9,36.2,30.05,SW,216,4.0,4.0,90,0.00,,FEW035,0.08,VWS V14.01,2013-02-14 04:40:00,
2013-02-13 22:45:00,39.0,36.3,30.05,SW,215,2.0,4.0,90,0.00,,FEW035,0.08,VWS V14.01,2013-02-14 04:45:00,
2013-02-13 22:50:00,39.1,36.4,30.05,South,190,3.0,4.0,90,0.00,,FEW035,0.08,VWS V14.01,2013-02-14 04:50:00,
2013-02-13 22:55:00,39.1,36.4,30.05,South,186,0.0,3.0,90,0.00,,FEW035,0.08,VWS V14.01,2013-02-14 04:55:00,
2013-02-13 23:00:00,39.2,36.5,30.05,SW,218,3.0,4.0,90,0.00,,FEW035,0.08,VWS V14.01,2013-02-14 05:00:00,
2013-02-13 23:05:00,39.2,36.5,30.05,SW,219,0.0,5.0,90,0.00,,FEW035,0.08,VWS V14.01,2013-02-14 05:05:00,
2013-02-13 23:10:00,39.0,36.3,30.05,SW,214,2.0,3.0,90,0.00,,FEW035,0.08,VWS V14.01,2013-02-14 05:10:00,
2013-02-13 23:15:00,39.1,36.4,30.05,SSW,211,1.0,5.0,90,0.00,,FEW035,0.08,VWS V14.01,2013-02-14 05:15:00,
2013-02-13 23:20:00,39.0,36.3,30.05,SSW,194,3.0,5.0,90,0.00,,FEW035,0.08,VWS V14.01,2013-02-14 05:20:00,
2013-02-13 23:25:00,39.1,36.4,30.05,SW,226,3.0,5.0,90,0.00,,FEW035,0.08,VWS V14.01,2013-02-14 05:25:00,
2013-02-13 23:30:00,39.3,36.6,30.05,SSW,201,0.0,6.0,90,0.00,,FEW035,0.08,VWS V14.01,2013-02-14 05:30:00,
2013-02-13 23:35:00,39.2,36.5,30.05,SW,219,2.0,4.0,90,0.00,,FEW035,0.08,VWS V14.01,2013-02-14 05:35:00,
2013-02-13 23:40:00,39.2,36.5,30.05,SW,230,4.0,6.0,90,0.00,,FEW035,0.08,VWS V14.01,2013-02-14 05:40:00,
2013-02-13 23:45:00,39.2,36.5,30.05,SSW,207,3.0,5.0,90,0.00,,FEW035,0.08,VWS V14.01,2013-02-14 05:45:00,
2013-02-13 23:50:00,39.2,36.5,30.05,SW,217,4.0,5.0,90,0.00,,FEW035,0.08,VWS V14.01,2013-02-14 05:50:00,
2013-02-13 23:55:00,39.3,36.6,30.05,SSW,194,1.0,7.0,90,0.00,,FEW035,0.08,VWS V14.01,2013-02-14 05:55:00,